Time;durP1;ratioP1;P1;durP2;ratioP2;P2;SDS_P1;SDS_P2;PMS_P1;PMS_P2;Temp;Humidity;BMP_temperature;BMP_pressure;BME280_temperature;BME280_humidity;BME280_pressure;Samples;Min_cycle;Max_cycle;Signal;HPM_P1;HPM_P2
2022/11/07 00:00:26;;;;;;;9.38;2.80;;;;;;;10.67;85.44;100502.25;5093675;28;20128;-61
2022/11/07 00:02:53;;;;;;;8.50;2.83;;;;;;;10.61;85.51;100502.09;5122445;27;20044;-61
2022/11/07 00:05:21;;;;;;;9.73;2.80;;;;;;;10.55;85.61;100503.53;5091511;28;20066;-61
2022/11/07 00:07:47;;;;;;;10.05;3.10;;;;;;;10.61;85.88;100516.19;5087458;28;20094;-61
2022/11/07 00:10:14;;;;;;;14.80;3.60;;;;;;;10.55;86.15;100517.66;5093492;28;20047;-61
2022/11/07 00:12:41;;;;;;;8.65;3.20;;;;;;;10.53;86.91;100513.47;5089018;28;20097;-61
2022/11/07 00:15:08;;;;;;;10.07;3.17;;;;;;;10.60;86.76;100519.00;5093563;28;20392;-62
2022/11/07 00:17:34;;;;;;;9.60;3.10;;;;;;;10.52;86.72;100522.44;5089401;28;20051;-62
2022/11/07 00:20:01;;;;;;;9.63;3.10;;;;;;;10.51;86.99;100524.28;5075356;28;20397;-62
2022/11/07 00:22:28;;;;;;;7.30;2.60;;;;;;;10.61;86.79;100523.31;5084577;28;20043;-61
2022/11/07 00:24:55;;;;;;;10.70;2.90;;;;;;;10.61;86.55;100523.31;5092858;28;20032;-61
2022/11/07 00:27:22;;;;;;;9.10;2.67;;;;;;;10.64;86.25;100531.78;5093095;28;20055;-61
2022/11/07 00:29:49;;;;;;;11.27;2.90;;;;;;;10.61;86.56;100532.09;5087560;28;20119;-61
2022/11/07 00:32:16;;;;;;;9.75;3.20;;;;;;;10.61;86.32;100529.44;5092846;28;20570;-61
2022/11/07 00:34:42;;;;;;;5.97;2.60;;;;;;;10.66;86.52;100534.25;5089025;28;20051;-61
2022/11/07 00:37:09;;;;;;;9.85;2.60;;;;;;;10.71;85.29;100542.56;5092929;28;20044;-61
2022/11/07 00:39:35;;;;;;;13.85;2.47;;;;;;;10.53;86.16;100537.34;4989547;28;20059;-61
2022/11/07 00:42:02;;;;;;;7.43;2.58;;;;;;;10.56;86.27;100534.38;5092540;28;20493;-61
2022/11/07 00:44:29;;;;;;;10.82;2.53;;;;;;;10.47;85.99;100545.94;5088671;28;20047;-62
2022/11/07 00:46:55;;;;;;;7.72;2.78;;;;;;;10.45;86.01;100532.84;5093029;28;20040;-61
2022/11/07 00:49:22;;;;;;;7.97;2.60;;;;;;;10.41;85.84;100533.34;5088449;28;20063;-61
2022/11/07 00:51:49;;;;;;;10.70;3.08;;;;;;;10.43;85.92;100529.53;5093336;28;20490;-62
2022/11/07 00:54:15;;;;;;;9.45;2.80;;;;;;;10.47;86.03;100538.00;5088662;28;20048;-62
2022/11/07 00:56:42;;;;;;;8.13;3.03;;;;;;;10.37;86.06;100535.47;5092991;28;20075;-61
2022/11/07 00:59:09;;;;;;;9.07;2.97;;;;;;;10.33;86.59;100532.31;5088413;28;20040;-62
2022/11/07 01:01:36;;;;;;;10.65;2.72;;;;;;;10.36;86.56;100539.09;5092951;28;20515;-62
2022/11/07 01:06:49;;;;;;;10.00;2.60;;;;;;;10.25;86.97;100526.91;5096081;28;20063;-62
2022/11/07 01:09:19;;;;;;;7.50;2.67;;;;;;;10.32;87.05;100532.44;5074456;28;20063;-62
2022/11/07 01:11:45;;;;;;;7.05;2.40;;;;;;;10.22;86.96;100540.47;5096686;28;20040;-62
2022/11/07 01:14:15;;;;;;;9.63;2.50;;;;;;;10.23;87.35;100542.13;5092626;28;20074;-62
2022/11/07 01:16:42;;;;;;;6.35;2.28;;;;;;;10.23;87.35;100538.66;5096769;28;20397;-62
2022/11/07 01:19:09;;;;;;;8.07;2.30;;;;;;;10.19;86.95;100536.31;5091291;28;20044;-62
2022/11/07 01:21:38;;;;;;;8.95;2.15;;;;;;;10.15;87.31;100544.72;5095389;28;20489;-62
2022/11/07 01:24:07;;;;;;;9.23;2.40;;;;;;;10.12;87.56;100540.59;5088961;28;20048;-62
2022/11/07 01:26:35;;;;;;;9.40;2.58;;;;;;;10.15;87.53;100536.78;5096432;28;20067;-62
2022/11/07 01:29:03;;;;;;;10.30;2.67;;;;;;;10.08;88.11;100541.06;5091224;28;20433;-62
2022/11/07 01:31:30;;;;;;;9.25;2.38;;;;;;;10.12;88.19;100537.09;5096774;28;20037;-61
2022/11/07 01:33:58;;;;;;;7.63;2.85;;;;;;;10.01;88.47;100538.19;5093531;28;20048;-62
2022/11/07 01:36:26;;;;;;;8.43;2.30;;;;;;;9.95;88.66;100538.78;5094889;28;20048;-62
2022/11/07 01:38:53;;;;;;;10.88;2.50;;;;;;;10.02;88.69;100539.84;5070072;28;20052;-62
2022/11/07 01:41:27;;;;;;;8.20;2.50;;;;;;;9.93;89.45;100533.69;5037412;28;20444;-63
2022/11/07 01:46:46;;;;;;;8.30;2.70;;;;;;;9.99;89.55;100537.53;5111017;27;20415;-61
2022/11/07 01:49:28;;;;;;;11.25;2.75;;;;;;;9.98;89.36;100536.66;5105502;28;20118;-61
2022/11/07 01:52:07;;;;;;;9.25;2.50;;;;;;;9.93;89.87;100531.03;5109538;28;20071;-61
2022/11/07 01:57:24;;;;;;;9.63;3.08;;;;;;;9.88;90.28;100524.53;5110504;27;20375;-60
2022/11/07 01:59:56;;;;;;;14.73;2.83;;;;;;;9.86;90.86;100521.19;5105361;28;20142;-61
2022/11/07 02:02:25;;;;;;;9.32;2.70;;;;;;;9.84;91.09;100521.34;5109387;28;20378;-61
2022/11/07 02:04:56;;;;;;;8.93;2.63;;;;;;;9.77;91.29;100523.78;5106136;28;20043;-61
2022/11/07 02:07:23;;;;;;;12.00;3.00;;;;;;;9.81;91.82;100519.00;5109394;28;20496;-61
2022/11/07 02:09:52;;;;;;;13.32;3.03;;;;;;;9.88;91.35;100522.72;5106223;28;20090;-61
2022/11/07 02:12:21;;;;;;;12.00;2.90;;;;;;;9.93;91.58;100517.78;5110388;28;20485;-61
2022/11/07 02:14:47;;;;;;;13.95;3.25;;;;;;;9.99;91.35;100532.22;5088322;28;20063;-61
2022/11/07 02:17:15;;;;;;;14.50;3.92;;;;;;;10.01;91.01;100529.41;5110317;28;20519;-61
2022/11/07 02:19:46;;;;;;;11.80;4.25;;;;;;;10.02;90.85;100537.19;5105808;28;20032;-61
2022/11/07 02:22:28;;;;;;;18.08;4.93;;;;;;;9.99;90.46;100542.81;5110371;28;20044;-60
2022/11/07 02:24:57;;;;;;;;;;;;;;;10.02;90.66;100539.03;5101929;28;20044;-60
2022/11/07 02:27:26;;;;;;;16.90;4.65;;;;;;;10.01;90.11;100530.25;5110106;28;19970;-61
2022/11/07 02:30:00;;;;;;;15.35;4.90;;;;;;;10.01;90.01;100529.41;5108826;28;20066;-61
2022/11/07 02:32:28;;;;;;;18.77;5.20;;;;;;;10.02;89.61;100525.78;5106225;28;20044;-61
2022/11/07 02:34:56;;;;;;;15.38;5.07;;;;;;;9.93;89.74;100528.38;5109047;28;20043;-61
2022/11/07 02:37:28;;;;;;;12.70;3.92;;;;;;;10.01;89.46;100526.78;5104298;28;20054;-60
2022/11/07 02:39:54;;;;;;;;;;;;;;;9.94;89.82;100539.81;5020193;28;20050;-60
2022/11/07 02:42:22;;;;;;;16.75;3.50;;;;;;;9.92;89.44;100533.81;5103965;28;19977;-62
2022/11/07 02:44:52;;;;;;;10.80;2.92;;;;;;;9.86;89.84;100537.94;5108855;28;20517;-60
2022/11/07 02:47:19;;;;;;;11.13;2.90;;;;;;;9.86;89.85;100529.13;5105440;28;20533;-60
2022/11/07 02:49:45;;;;;;;19.52;2.83;;;;;;;9.95;89.40;100537.00;5109747;28;20044;-60
2022/11/07 02:52:12;;;;;;;12.80;2.72;;;;;;;9.84;90.14;100537.25;5105757;28;20044;-60
2022/11/07 02:54:39;;;;;;;11.35;2.50;;;;;;;9.84;89.94;100529.31;5109774;28;20039;-60
2022/11/07 02:57:05;;;;;;;12.98;2.67;;;;;;;9.82;90.39;100533.91;5105212;28;20036;-60
2022/11/07 02:59:32;;;;;;;14.27;3.35;;;;;;;9.86;90.04;100529.13;5109217;28;20044;-63
2022/11/07 03:01:59;;;;;;;12.52;2.80;;;;;;;9.83;90.18;100532.94;5104533;28;20093;-62
2022/11/07 03:04:25;;;;;;;12.63;2.72;;;;;;;9.83;90.01;100532.94;5109026;28;20408;-62
2022/11/07 03:06:52;;;;;;;14.65;2.90;;;;;;;9.84;90.06;100537.25;5101874;28;20040;-62
2022/11/07 03:09:19;;;;;;;20.05;2.97;;;;;;;9.75;90.74;100539.00;5095807;28;20527;-62
2022/11/07 03:11:45;;;;;;;12.25;2.45;;;;;;;9.76;90.80;100545.94;5090364;28;20048;-62
2022/11/07 03:14:12;;;;;;;9.32;2.55;;;;;;;9.76;90.46;100542.47;5096085;28;20485;-62
2022/11/07 03:16:39;;;;;;;10.63;2.40;;;;;;;9.82;90.43;100544.50;5090421;28;20044;-62
2022/11/07 03:19:06;;;;;;;10.88;2.65;;;;;;;9.80;90.40;100549.97;5094360;28;20489;-63
2022/11/07 03:21:32;;;;;;;16.20;3.00;;;;;;;9.77;90.60;100550.28;5091213;28;20043;-63
2022/11/07 03:23:59;;;;;;;12.65;2.83;;;;;;;9.77;90.64;100547.63;5095678;28;20101;-63
2022/11/07 03:26:26;;;;;;;15.05;3.10;;;;;;;9.77;90.66;100550.28;5086930;28;20051;-62
2022/11/07 03:28:52;;;;;;;13.95;3.03;;;;;;;9.75;91.04;100551.41;5095277;28;20073;-62
2022/11/07 03:31:19;;;;;;;12.82;2.97;;;;;;;9.78;90.76;100548.44;5091196;28;20846;-62
2022/11/07 03:33:46;;;;;;;18.02;3.00;;;;;;;9.73;90.90;100545.41;5095422;28;20119;-63
2022/11/07 03:36:13;;;;;;;12.73;3.30;;;;;;;9.79;90.67;100545.66;5089970;28;20472;-62
2022/11/07 03:38:40;;;;;;;17.50;3.30;;;;;;;9.80;90.52;100549.13;5094040;28;20044;-62
2022/11/07 03:41:06;;;;;;;16.60;2.90;;;;;;;9.79;90.81;100540.34;4985145;28;20044;-62
2022/11/07 03:43:33;;;;;;;14.43;2.60;;;;;;;9.74;91.12;100542.63;5094681;28;20044;-62
2022/11/07 03:46:00;;;;;;;12.30;2.88;;;;;;;9.77;91.08;100552.09;5092891;28;20485;-62
2022/11/07 03:48:26;;;;;;;12.95;3.20;;;;;;;9.82;90.76;100556.94;5092074;28;20371;-62
2022/11/07 03:50:53;;;;;;;12.63;3.10;;;;;;;9.79;90.89;100552.78;5094478;28;20051;-62
2022/11/07 03:53:20;;;;;;;13.20;3.33;;;;;;;9.80;90.86;100557.94;5092368;28;20044;-62
2022/11/07 03:55:53;;;;;;;15.80;3.20;;;;;;;9.82;90.42;100567.53;5093536;28;20405;-62
2022/11/07 03:58:20;;;;;;;13.90;3.10;;;;;;;9.77;90.78;100560.06;5091993;28;20090;-62
2022/11/07 04:00:47;;;;;;;15.85;3.08;;;;;;;9.77;91.06;100558.22;5093686;28;20401;-62
2022/11/07 04:03:14;;;;;;;13.60;2.75;;;;;;;9.77;91.28;100570.66;5089277;28;20037;-62
2022/11/07 04:05:41;;;;;;;20.48;2.90;;;;;;;9.79;91.24;100568.66;5094217;28;20383;-62
2022/11/07 04:08:08;;;;;;;13.40;3.00;;;;;;;9.77;91.21;100566.16;5090451;28;20040;-63
2022/11/07 04:10:34;;;;;;;13.00;2.85;;;;;;;9.77;91.48;100571.47;5094854;28;20040;-63
2022/11/07 04:18:38;;;;;;;17.10;2.85;;;;;;;9.88;90.92;100572.22;5093309;28;20047;-62
2022/11/07 04:21:04;;;;;;;13.40;3.10;;;;;;;9.83;90.52;100574.50;5091601;28;20085;-62
2022/11/07 04:23:31;;;;;;;14.82;3.08;;;;;;;9.83;90.96;100569.19;5093828;28;20036;-62
2022/11/07 04:28:44;;;;;;;12.20;3.10;;;;;;;9.83;90.66;100574.50;5090955;28;20055;-62
2022/11/07 04:31:11;;;;;;;15.52;3.70;;;;;;;9.85;90.61;100573.34;5093413;28;20502;-62
2022/11/07 04:33:37;;;;;;;14.90;3.38;;;;;;;9.83;90.79;100569.19;5089988;28;20051;-62
2022/11/07 04:36:05;;;;;;;19.05;3.95;;;;;;;9.79;90.81;100574.78;5094163;28;20060;-63
2022/11/07 04:38:31;;;;;;;16.25;4.07;;;;;;;9.72;90.60;100576.38;5089928;28;20543;-63
2022/11/07 04:40:58;;;;;;;19.42;3.50;;;;;;;9.72;90.93;100568.44;5000028;28;20073;-62
2022/11/07 04:43:26;;;;;;;16.73;3.53;;;;;;;9.65;90.76;100564.72;5089565;28;20040;-62
2022/11/07 04:45:53;;;;;;;16.30;3.67;;;;;;;9.65;90.79;100572.69;5094271;28;20444;-62
2022/11/07 04:48:19;;;;;;;18.58;3.40;;;;;;;9.61;91.14;100573.97;5089433;28;20055;-62
2022/11/07 04:50:46;;;;;;;15.50;3.63;;;;;;;9.55;91.00;100571.91;5094104;28;20040;-62
2022/11/07 04:53:15;;;;;;;14.85;3.50;;;;;;;9.47;91.22;100564.72;5071667;28;20044;-61
2022/11/07 04:55:42;;;;;;;13.98;3.50;;;;;;;9.41;91.45;100560.06;5093611;28;20105;-61
2022/11/07 04:58:09;;;;;;;12.60;3.67;;;;;;;9.36;91.78;100562.31;5087850;28;20418;-63
2022/11/07 05:00:36;;;;;;;16.65;3.30;;;;;;;9.37;91.69;100569.28;5094089;28;20051;-62
2022/11/07 05:03:03;;;;;;;10.57;3.20;;;;;;;9.23;92.22;100565.34;5089515;28;20502;-62
2022/11/07 05:05:30;;;;;;;12.25;3.40;;;;;;;9.28;92.55;100562.22;5092319;28;20036;-62
2022/11/07 05:07:57;;;;;;;10.30;3.63;;;;;;;9.25;92.56;100563.38;5089587;28;20048;-62
2022/11/07 05:10:27;;;;;;;22.48;3.80;;;;;;;9.23;92.32;100558.22;5075653;28;20056;-61
2022/11/07 05:12:55;;;;;;;13.63;3.67;;;;;;;9.25;92.18;100562.53;5089212;28;20040;-62
2022/11/07 05:15:22;;;;;;;14.48;3.85;;;;;;;9.20;92.32;100569.13;5091780;28;20040;-62
2022/11/07 05:17:49;;;;;;;14.95;4.03;;;;;;;9.14;92.83;100569.69;5087860;28;20032;-61
2022/11/07 05:20:27;;;;;;;11.27;3.78;;;;;;;9.15;92.88;100568.72;5093649;28;20071;-61
2022/11/07 05:23:27;;;;;;;16.20;3.53;;;;;;;9.04;93.53;100574.25;5087568;28;20040;-62
2022/11/07 05:25:44;;;;;;;12.10;3.38;;;;;;;9.02;94.02;100568.22;5093197;28;20052;-62
2022/11/07 05:28:14;;;;;;;15.30;4.30;;;;;;;8.86;94.98;100560.97;5084148;28;20497;-62
2022/11/07 05:30:42;;;;;;;13.00;4.10;;;;;;;8.91;95.27;100565.78;5093256;28;20051;-62
2022/11/07 05:33:11;;;;;;;17.85;3.60;;;;;;;8.93;95.32;100567.34;5071872;28;20098;-61
2022/11/07 05:35:38;;;;;;;21.75;3.88;;;;;;;8.95;95.37;100569.81;5075455;28;20115;-62
2022/11/07 05:38:06;;;;;;;14.48;4.03;;;;;;;8.98;95.10;100578.28;5090205;28;20123;-62
2022/11/07 05:40:35;;;;;;;15.40;4.15;;;;;;;9.04;94.85;100574.25;4993423;28;20068;-62
2022/11/07 05:43:05;;;;;;;14.30;3.90;;;;;;;9.00;94.63;100571.06;5089622;28;20044;-62
2022/11/07 05:45:32;;;;;;;16.42;4.32;;;;;;;9.05;94.76;100573.25;5091826;28;20040;-62
2022/11/07 05:48:00;;;;;;;17.20;4.00;;;;;;;9.10;94.77;100578.09;5091303;28;20432;-62
2022/11/07 05:50:28;;;;;;;14.13;4.03;;;;;;;9.20;94.63;100570.91;5090969;28;20143;-63
2022/11/07 05:52:55;;;;;;;21.25;4.60;;;;;;;9.25;94.08;100566.00;5092178;28;20065;-62
2022/11/07 05:55:23;;;;;;;12.73;4.10;;;;;;;9.30;93.88;100574.34;5071583;28;20126;-63
2022/11/07 05:57:51;;;;;;;15.93;4.38;;;;;;;9.29;93.25;100575.31;5091313;28;20546;-62
2022/11/07 06:00:18;;;;;;;19.52;4.97;;;;;;;9.35;93.20;100580.03;5087762;28;20075;-62
2022/11/07 06:02:53;;;;;;;13.85;4.10;;;;;;;9.39;92.71;100575.25;5093025;28;20397;-62
2022/11/07 06:05:20;;;;;;;20.25;4.53;;;;;;;9.47;92.93;100580.63;5088640;28;20483;-63
2022/11/07 06:07:49;;;;;;;16.08;4.03;;;;;;;9.51;92.35;100581.16;5092992;28;20066;-63
2022/11/07 06:10:16;;;;;;;17.63;4.35;;;;;;;9.59;92.34;100575.94;5087250;28;20040;-61
2022/11/07 06:12:43;;;;;;;22.02;4.30;;;;;;;9.66;92.12;100577.00;5091203;28;20050;-61
2022/11/07 06:15:10;;;;;;;19.48;4.53;;;;;;;9.72;91.96;100584.34;5088452;28;20063;-61
2022/11/07 06:17:37;;;;;;;23.15;4.93;;;;;;;9.77;91.33;100586.53;5092402;28;20438;-61
2022/11/07 06:20:06;;;;;;;23.45;4.75;;;;;;;9.84;91.72;100587.59;5086745;28;20435;-62
2022/11/07 06:22:33;;;;;;;18.58;4.88;;;;;;;9.86;91.39;100590.91;5091415;28;20044;-62
2022/11/07 06:24:59;;;;;;;16.20;4.03;;;;;;;9.95;90.90;100605.03;5087902;28;20048;-61
2022/11/07 06:27:26;;;;;;;21.63;4.38;;;;;;;10.00;90.96;100600.13;5092291;28;20036;-62
2022/11/07 06:29:52;;;;;;;25.00;5.13;;;;;;;10.09;90.48;100599.19;5087839;28;20044;-62
2022/11/07 06:32:19;;;;;;;23.75;5.50;;;;;;;10.15;89.93;100592.44;5092458;28;20046;-61
2022/11/07 06:34:46;;;;;;;17.98;4.78;;;;;;;10.19;89.63;100601.78;5037154;28;20072;-62
2022/11/07 06:37:13;;;;;;;20.42;4.00;;;;;;;10.20;90.31;100603.41;5092710;28;20099;-62
2022/11/07 06:39:40;;;;;;;14.82;3.83;;;;;;;10.24;90.02;100603.94;5033650;28;20043;-62
2022/11/07 06:42:08;;;;;;;21.88;4.30;;;;;;;10.24;89.81;100602.16;5050579;28;20055;-62
2022/11/07 06:44:35;;;;;;;14.32;3.20;;;;;;;10.32;90.31;100596.91;5073648;28;20044;-62
2022/11/07 06:47:02;;;;;;;19.85;3.92;;;;;;;10.33;89.15;100605.69;5095562;28;20382;-62
2022/11/07 06:49:28;;;;;;;16.30;4.22;;;;;;;10.42;89.44;100606.59;5090355;28;20044;-62
2022/11/07 06:51:55;;;;;;;17.23;3.95;;;;;;;10.50;88.89;100606.66;5095291;28;20437;-62
2022/11/07 06:54:22;;;;;;;18.20;3.75;;;;;;;10.51;88.89;100605.63;5089815;28;20734;-62
2022/11/07 06:56:48;;;;;;;19.95;3.63;;;;;;;10.60;88.85;100611.81;5095284;28;20101;-62
2022/11/07 06:59:15;;;;;;;18.60;4.03;;;;;;;10.62;88.56;100607.19;5073545;28;20493;-62
2022/11/07 07:01:41;;;;;;;17.77;4.03;;;;;;;10.62;88.93;100610.66;5096080;28;20047;-62
2022/11/07 07:04:10;;;;;;;18.92;3.40;;;;;;;10.65;87.83;100613.00;5090210;28;20052;-62
2022/11/07 07:06:38;;;;;;;20.13;3.42;;;;;;;10.75;87.75;100605.78;5093690;28;20059;-62
2022/11/07 07:09:05;;;;;;;23.55;3.72;;;;;;;10.87;87.28;100611.63;5073105;28;20680;-62
2022/11/07 07:11:35;;;;;;;19.95;3.90;;;;;;;10.87;86.74;100616.13;5087244;28;20114;-62
2022/11/07 07:14:02;;;;;;;14.48;3.42;;;;;;;10.93;87.36;100618.13;5070882;28;20045;-62
2022/11/07 07:16:30;;;;;;;21.55;3.58;;;;;;;10.94;87.14;100615.31;5075455;28;20048;-62
2022/11/07 07:18:57;;;;;;;20.00;3.95;;;;;;;11.04;87.01;100627.63;5071177;28;20513;-61
2022/11/07 07:21:25;;;;;;;28.80;4.30;;;;;;;11.04;87.31;100614.34;5074887;28;20048;-62
2022/11/07 07:23:51;;;;;;;20.10;4.65;;;;;;;11.05;87.25;100624.81;5073392;28;20497;-62
2022/11/07 07:26:18;;;;;;;22.40;3.80;;;;;;;11.08;86.45;100621.03;5077334;28;20681;-62
2022/11/07 07:28:45;;;;;;;17.00;4.15;;;;;;;11.19;85.58;100627.84;5091060;28;20085;-62
2022/11/07 07:33:48;;;;;;;18.90;4.00;;;;;;;11.23;86.18;100631.84;5110716;27;20391;-61
2022/11/07 07:36:15;;;;;;;19.75;3.92;;;;;;;11.24;85.45;100626.38;5105129;28;20075;-61
2022/11/07 07:38:46;;;;;;;21.42;3.97;;;;;;;11.25;85.81;100633.34;5084129;28;20556;-62
2022/11/07 07:41:16;;;;;;;20.60;3.45;;;;;;;11.34;85.38;100639.53;5044825;28;20401;-62
2022/11/07 07:43:43;;;;;;;20.30;4.28;;;;;;;11.39;85.43;100641.69;5110052;28;20040;-62
2022/11/07 07:46:14;;;;;;;19.67;3.30;;;;;;;11.48;85.18;100635.41;5106122;28;20058;-62
2022/11/07 07:48:41;;;;;;;17.55;3.25;;;;;;;11.45;85.48;100641.03;5110821;28;20564;-62
2022/11/07 07:51:08;;;;;;;14.40;2.83;;;;;;;11.57;85.10;100647.72;5106486;28;20481;-61
2022/11/07 07:53:34;;;;;;;16.85;3.30;;;;;;;11.56;85.43;100647.88;5110426;28;20078;-62
2022/11/07 07:56:04;;;;;;;20.40;3.28;;;;;;;11.73;85.36;100652.22;5106811;28;20176;-63
2022/11/07 07:58:31;;;;;;;20.10;3.42;;;;;;;11.81;85.15;100662.88;5128801;28;20044;-62
2022/11/07 08:00:58;;;;;;;15.45;3.05;;;;;;;12.07;83.98;100653.94;5098263;27;20040;-60
2022/11/07 08:03:25;;;;;;;16.15;2.88;;;;;;;12.29;83.12;100652.44;5090070;28;20041;-60
2022/11/07 08:05:57;;;;;;;16.83;2.90;;;;;;;12.38;82.82;100656.75;5086610;28;20044;-59
2022/11/07 08:08:24;;;;;;;15.13;3.25;;;;;;;12.48;81.98;100667.25;5110556;28;20047;-60
2022/11/07 08:10:53;;;;;;;17.42;2.90;;;;;;;12.58;81.75;100670.53;5104495;28;20489;-60
2022/11/07 08:13:21;;;;;;;17.80;2.97;;;;;;;12.67;81.21;100672.19;5102976;28;20490;-60
2022/11/07 08:15:49;;;;;;;19.23;3.65;;;;;;;12.72;81.19;100670.88;5104698;28;20043;-60
2022/11/07 08:18:16;;;;;;;12.90;2.50;;;;;;;12.68;80.88;100670.38;5110029;28;20051;-60
2022/11/07 08:20:43;;;;;;;21.27;2.97;;;;;;;12.73;80.59;100673.31;5104512;28;20073;-59
2022/11/07 08:23:10;;;;;;;21.48;3.22;;;;;;;12.80;80.47;100684.97;5109846;28;20044;-59
2022/11/07 08:25:41;;;;;;;18.27;2.92;;;;;;;12.83;80.49;100681.97;5104417;28;20058;-58
2022/11/07 08:28:08;;;;;;;13.30;2.60;;;;;;;12.88;79.35;100676.16;5108699;28;20044;-58
2022/11/07 08:30:35;;;;;;;21.27;4.50;;;;;;;12.85;80.49;100684.47;5101967;28;20044;-63
2022/11/07 08:33:02;;;;;;;16.55;3.00;;;;;;;12.75;80.41;100684.66;5103838;28;20048;-63
2022/11/07 08:35:29;;;;;;;16.98;3.28;;;;;;;12.71;81.04;100679.84;5127180;28;20070;-63
2022/11/07 08:37:57;;;;;;;22.52;3.35;;;;;;;12.71;80.74;100685.97;5109558;27;20040;-63
2022/11/07 08:40:24;;;;;;;23.33;3.42;;;;;;;12.68;80.66;100681.00;5051137;28;20052;-63
2022/11/07 08:42:51;;;;;;;16.05;3.72;;;;;;;12.67;81.04;100682.00;5083079;28;20524;-63
2022/11/07 08:45:18;;;;;;;16.92;2.45;;;;;;;12.68;81.27;100689.81;5106177;28;20050;-63
2022/11/07 08:47:44;;;;;;;15.48;2.85;;;;;;;12.75;80.87;100691.78;5100175;28;20100;-63
2022/11/07 08:50:11;;;;;;;19.02;2.90;;;;;;;12.77;80.59;100685.31;5090829;28;20048;-62
2022/11/07 08:52:38;;;;;;;12.77;2.83;;;;;;;12.83;80.25;100687.28;5090651;28;20043;-62
2022/11/07 08:55:05;;;;;;;18.83;3.20;;;;;;;12.82;80.18;100698.97;5094539;28;20044;-63
2022/11/07 08:57:32;;;;;;;20.55;2.60;;;;;;;12.90;79.98;100700.75;5089428;28;20048;-62
2022/11/07 08:59:58;;;;;;;19.30;2.75;;;;;;;12.96;79.86;100694.75;5095265;28;20044;-62
2022/11/07 09:02:26;;;;;;;14.75;2.80;;;;;;;13.01;79.96;100686.25;5093109;28;20040;-62
2022/11/07 09:05:12;;;;;;;14.23;2.72;;;;;;;12.99;79.81;100696.25;5091971;28;20486;-62
2022/11/07 09:07:39;;;;;;;21.52;3.45;;;;;;;12.97;80.60;100698.22;5090269;28;20043;-63
2022/11/07 09:10:06;;;;;;;18.10;3.20;;;;;;;12.94;80.31;100695.94;5094335;28;20454;-63
2022/11/07 09:12:33;;;;;;;24.67;2.85;;;;;;;12.96;80.47;100697.41;5088961;28;20109;-64
2022/11/07 09:15:00;;;;;;;21.15;3.40;;;;;;;12.95;80.46;100693.09;5094451;28;20086;-63
2022/11/07 09:17:27;;;;;;;24.02;3.63;;;;;;;12.98;80.52;100695.41;5090711;28;20044;-63
2022/11/07 09:19:54;;;;;;;14.90;2.47;;;;;;;12.99;80.71;100690.94;5093477;28;20098;-63
2022/11/07 09:22:20;;;;;;;18.23;2.65;;;;;;;12.97;80.41;100698.22;5089842;28;20061;-63
2022/11/07 09:24:47;;;;;;;16.48;3.10;;;;;;;13.03;80.75;100702.88;5091455;28;20044;-63
2022/11/07 09:27:14;;;;;;;21.40;2.85;;;;;;;12.99;80.77;100704.25;5088852;28;20551;-63
2022/11/07 09:29:41;;;;;;;17.88;3.53;;;;;;;13.06;80.81;100715.84;5093629;28;20050;-63
2022/11/07 09:32:07;;;;;;;14.48;3.08;;;;;;;13.02;81.08;100726.03;5086775;28;20052;-62
2022/11/07 09:34:49;;;;;;;19.55;3.40;;;;;;;13.03;81.67;100724.19;5092836;28;20047;-63
2022/11/07 09:37:19;;;;;;;21.55;3.28;;;;;;;12.93;84.60;100726.19;5087497;28;20040;-63
2022/11/07 09:39:47;;;;;;;23.15;3.58;;;;;;;12.67;88.33;100735.22;5056592;28;20047;-62
2022/11/07 09:42:41;;;;;;;18.33;3.53;;;;;;;12.32;92.59;100741.75;5088980;28;20535;-62
2022/11/07 09:45:12;;;;;;;15.77;3.85;;;;;;;12.24;95.16;100742.53;5093008;28;20040;-61
2022/11/07 09:47:44;;;;;;;19.80;4.18;;;;;;;12.07;97.66;100741.69;5088939;28;20054;-62
2022/11/07 09:50:13;;;;;;;;;;;;;;;12.03;99.17;100745.69;5092187;28;20067;-62
2022/11/07 09:52:48;;;;;;;18.80;4.53;;;;;;;11.80;100.00;100737.44;5087626;28;20649;-62
2022/11/07 09:55:21;;;;;;;28.75;4.63;;;;;;;11.70;100.00;100735.75;5091408;28;20051;-62
2022/11/07 09:57:51;;;;;;;17.10;3.97;;;;;;;11.74;100.00;100743.41;5087996;28;20048;-62
2022/11/07 10:00:20;;;;;;;20.23;4.03;;;;;;;11.78;100.00;100745.59;5093451;28;20048;-62
2022/11/07 10:02:51;;;;;;;17.80;3.75;;;;;;;11.86;100.00;100755.41;5089109;28;20123;-62
2022/11/07 10:05:53;;;;;;;23.17;4.20;;;;;;;11.83;100.00;100753.09;5093181;28;20048;-62
2022/11/07 10:08:37;;;;;;;19.95;3.58;;;;;;;11.87;99.97;100744.59;5089713;28;20052;-61
2022/11/07 10:11:30;;;;;;;20.08;3.70;;;;;;;11.96;100.00;100756.13;5092532;28;20047;-62
2022/11/07 10:14:12;;;;;;;22.67;3.90;;;;;;;11.99;100.00;100752.28;5092960;28;20059;-61
2022/11/07 10:16:46;;;;;;;;;;;;;;;11.94;100.00;100759.97;5089881;28;20062;-61
2022/11/07 10:19:45;;;;;;;17.52;3.45;;;;;;;11.93;100.00;100753.78;5091216;28;20391;-61
2022/11/07 10:22:37;;;;;;;21.50;4.22;;;;;;;11.90;100.00;100752.28;5087900;28;20036;-61
2022/11/07 10:25:19;;;;;;;24.95;4.15;;;;;;;12.00;100.00;100748.66;5092331;28;20052;-60
2022/11/07 10:27:50;;;;;;;;;;;;;;;11.94;100.00;100758.13;5070546;28;20041;-60
2022/11/07 10:30:19;;;;;;;20.10;3.63;;;;;;;12.03;100.00;100749.16;5082449;28;19924;-60
2022/11/07 10:33:26;;;;;;;19.67;4.22;;;;;;;12.08;100.00;100749.50;5085596;28;20106;-61
2022/11/07 10:36:00;;;;;;;23.60;4.05;;;;;;;12.19;99.76;100753.69;5093090;28;20505;-59
2022/11/07 10:38:29;;;;;;;23.70;3.47;;;;;;;12.29;98.10;100758.84;5100503;28;20127;-61
2022/11/07 10:40:56;;;;;;;25.30;4.13;;;;;;;12.33;97.37;100754.03;5075403;28;20044;-61
2022/11/07 10:43:39;;;;;;;23.73;4.47;;;;;;;12.40;96.73;100742.53;5076023;28;20062;-61
2022/11/07 10:46:20;;;;;;;24.17;3.83;;;;;;;12.52;94.07;100752.88;5070474;28;20437;-61
2022/11/07 10:48:53;;;;;;;14.85;3.40;;;;;;;12.56;93.88;100747.03;5066504;28;20048;-62
2022/11/07 10:51:20;;;;;;;18.35;3.72;;;;;;;12.62;93.61;100753.53;5093120;28;20123;-61
2022/11/07 10:53:46;;;;;;;21.08;4.43;;;;;;;12.70;92.62;100758.84;5079045;28;20501;-59
2022/11/07 10:56:18;;;;;;;18.00;3.25;;;;;;;12.85;91.40;100751.84;5081631;28;20043;-61
2022/11/07 10:58:45;;;;;;;22.55;3.20;;;;;;;12.95;92.14;100746.34;5088844;28;20051;-59
2022/11/07 11:01:12;;;;;;;19.75;3.70;;;;;;;12.99;90.66;100753.00;5091585;28;20044;-60
2022/11/07 11:03:43;;;;;;;20.27;3.80;;;;;;;12.93;90.80;100751.00;5065936;28;20055;-60
2022/11/07 11:06:20;;;;;;;;;;;;;;;12.96;91.54;100755.97;5081609;28;20055;-60
2022/11/07 11:08:50;;;;;;;24.23;3.83;;;;;;;13.01;90.71;100756.31;5102285;28;19928;-61
2022/11/07 11:14:09;;;;;;;22.90;4.03;;;;;;;13.14;88.48;100753.13;5116950;27;20181;-60
2022/11/07 11:16:40;;;;;;;26.40;3.80;;;;;;;13.08;90.19;100756.47;5092098;28;20136;-60
2022/11/07 11:19:18;;;;;;;21.17;3.40;;;;;;;13.21;88.84;100738.13;5102264;28;20048;-60
2022/11/07 11:21:48;;;;;;;18.85;3.70;;;;;;;13.47;88.94;100737.06;5075152;28;20048;-60
2022/11/07 11:24:34;;;;;;;16.85;3.50;;;;;;;13.74;85.40;100743.75;5071509;28;20067;-60
2022/11/07 11:27:21;;;;;;;18.00;3.25;;;;;;;13.86;83.87;100746.88;5092324;28;20067;-60
2022/11/07 11:29:56;;;;;;;19.15;3.22;;;;;;;13.84;83.20;100738.19;5085609;28;20052;-60
2022/11/07 11:32:31;;;;;;;21.52;3.58;;;;;;;13.76;84.47;100739.06;5088427;28;20494;-60
2022/11/07 11:35:37;;;;;;;18.50;3.65;;;;;;;13.65;84.32;100742.13;5109386;28;20047;-61
2022/11/07 11:38:27;;;;;;;20.13;2.88;;;;;;;13.57;84.12;100740.34;5102667;28;20048;-60
2022/11/07 11:40:58;;;;;;;17.13;4.07;;;;;;;13.58;84.17;100736.66;5064979;28;20048;-60
2022/11/07 11:43:40;;;;;;;30.23;6.40;;;;;;;13.63;83.83;100739.66;5064879;28;20498;-57
2022/11/07 11:46:13;;;;;;;17.65;3.30;;;;;;;13.64;83.15;100737.81;5104684;28;20048;-62
2022/11/07 11:48:46;;;;;;;19.83;3.22;;;;;;;13.61;82.60;100747.00;5054960;28;20074;-62
2022/11/07 11:51:25;;;;;;;17.75;3.22;;;;;;;13.58;83.23;100733.19;5107801;28;20052;-60
2022/11/07 11:53:52;;;;;;;20.38;3.10;;;;;;;13.61;82.88;100735.50;5084070;28;20127;-60